Weather at Jennie'S Field

Public forecast

Using degrees Fahrenheit for public forecast. Weather courtesy of forecast.io.

Closest aviation weather report (METAR) to Jennie'S Field

Closest report is Alexander Field South Wood County Airport, 6.3 nm (11.7 km) N. Retrieved 2021/06/13 17:54 UTC (12 minutes ago):

KISW 131754Z AUTO 28008KT 10SM CLR 29/08 A3003 RMK AO2 SLP165 T02890083 10294 20172 58010

Closest aviation forecast (TAF) to Jennie'S Field

Closest forecast is Volk Field, 26.0 nm (48.2 km) SW. Retrieved 2021/06/13 17:10 UTC (56 minutes ago):

TAF KVOK 131700Z 1317/1423 VRB06KT 9999 FEW120 QNH3002INS BECMG 1413/1414 34015G20KT 9999 FEW070 QNH2998INS BECMG 1422/1423 32008KT 9999 FEW055 SCT080 QNH2998INS TX30/1322Z TN16/1411Z LAST NO AMDS AFT 1323 NEXT 1409